createdAt,value
2024-03-12T00:00:24.022Z,61.91
2024-03-12T00:01:24.142Z,63.02
2024-03-12T00:02:24.101Z,63.20
2024-03-12T00:03:24.188Z,63.28
2024-03-12T00:04:24.180Z,64.06
2024-03-12T00:05:24.227Z,62.62
2024-03-12T00:06:24.330Z,63.79
2024-03-12T00:07:24.360Z,63.41
2024-03-12T00:08:24.398Z,63.31
2024-03-12T00:09:24.474Z,62.68
2024-03-12T00:10:24.517Z,60.97
2024-03-12T00:11:24.575Z,61.86
2024-03-12T00:12:24.634Z,60.73
2024-03-12T00:13:24.706Z,61.51
2024-03-12T00:14:24.698Z,60.27
2024-03-12T00:15:25.063Z,58.76
2024-03-12T00:16:24.806Z,60.37
2024-03-12T00:17:24.853Z,58.34
2024-03-12T00:18:24.892Z,61.76
2024-03-12T00:19:24.938Z,58.92
2024-03-12T00:20:24.991Z,60.34
2024-03-12T00:21:25.048Z,60.94
2024-03-12T00:22:25.093Z,62.11
2024-03-12T00:23:25.126Z,57.43
2024-03-12T00:24:25.255Z,59.87
2024-03-12T00:25:25.240Z,58.55
2024-03-12T00:26:25.310Z,58.31
2024-03-12T00:27:25.411Z,59.60
2024-03-12T00:28:25.442Z,58.13
2024-03-12T00:29:25.483Z,58.10
2024-03-12T00:30:25.561Z,59.15
2024-03-12T00:31:25.604Z,56.57
2024-03-12T00:32:25.656Z,58.55
2024-03-12T00:33:25.767Z,56.02
2024-03-12T00:34:25.789Z,58.25
2024-03-12T00:35:25.874Z,57.82
2024-03-12T00:36:25.934Z,58.32
2024-03-12T00:37:25.979Z,57.12
2024-03-12T00:38:26.033Z,55.55
2024-03-12T00:39:26.100Z,56.25
2024-03-12T00:40:26.151Z,54.94
2024-03-12T00:41:26.208Z,55.10
2024-03-12T00:42:26.289Z,57.48
2024-03-12T00:43:26.443Z,56.29
2024-03-12T00:44:26.406Z,54.96
2024-03-12T00:45:26.608Z,53.96
2024-03-12T00:46:26.486Z,57.35
2024-03-12T00:47:26.660Z,56.49
2024-03-12T00:48:26.633Z,54.52
2024-03-12T00:49:26.641Z,54.78
2024-03-12T00:50:26.708Z,54.87
2024-03-12T00:51:26.771Z,55.58
2024-03-12T00:52:26.819Z,54.16
2024-03-12T00:53:26.870Z,55.58
2024-03-12T00:54:26.943Z,54.70
2024-03-12T00:55:26.970Z,55.06
2024-03-12T00:56:27.034Z,54.77
2024-03-12T00:57:27.118Z,54.85
2024-03-12T00:58:27.150Z,53.60
2024-03-12T00:59:37.386Z,54.32
2024-03-12T01:00:27.493Z,54.56
2024-03-12T01:01:27.365Z,55.26
2024-03-12T01:02:27.228Z,55.60
2024-03-12T01:03:27.275Z,56.03
2024-03-12T01:04:27.232Z,55.37
2024-03-12T01:05:27.272Z,58.91
2024-03-12T01:06:27.278Z,52.31
2024-03-12T01:07:27.240Z,53.57
2024-03-12T01:08:27.232Z,53.20
2024-03-12T01:09:27.257Z,50.15
2024-03-12T01:10:27.227Z,53.12
2024-03-12T01:11:27.279Z,53.40
2024-03-12T01:12:27.247Z,52.84
2024-03-12T01:13:27.212Z,53.76
2024-03-12T01:14:27.220Z,50.38
2024-03-12T01:15:27.260Z,52.19
2024-03-12T01:16:27.234Z,52.26
2024-03-12T01:17:27.261Z,55.60
2024-03-12T01:18:27.261Z,50.09
2024-03-12T01:19:27.217Z,51.79
2024-03-12T01:20:27.223Z,52.39
2024-03-12T01:21:27.302Z,51.66
2024-03-12T01:22:27.353Z,51.45
2024-03-12T01:23:27.430Z,53.00
2024-03-12T01:24:27.500Z,53.40
2024-03-12T01:25:27.553Z,52.62
2024-03-12T01:26:27.642Z,50.89
2024-03-12T01:27:27.747Z,50.00
2024-03-12T01:28:27.790Z,53.28
2024-03-12T01:29:27.832Z,51.16
2024-03-12T01:30:28.617Z,50.48
2024-03-12T01:31:28.006Z,51.90
2024-03-12T01:32:28.050Z,53.23
2024-03-12T01:33:28.145Z,54.34
2024-03-12T01:34:28.176Z,55.14
2024-03-12T01:35:28.254Z,51.55
2024-03-12T01:36:28.353Z,53.44
2024-03-12T01:37:28.369Z,52.19
2024-03-12T01:38:28.446Z,52.58
2024-03-12T01:39:28.520Z,52.13
2024-03-12T01:40:28.555Z,52.15
2024-03-12T01:41:28.613Z,54.38
2024-03-12T01:42:28.686Z,50.46
2024-03-12T01:43:28.713Z,53.11
2024-03-12T01:44:28.792Z,51.74
2024-03-12T01:45:28.862Z,51.19
2024-03-12T01:46:28.896Z,51.07
2024-03-12T01:47:28.979Z,52.76
2024-03-12T01:48:29.123Z,52.88
2024-03-12T01:49:29.066Z,53.96
2024-03-12T01:50:29.140Z,52.10
2024-03-12T01:51:29.245Z,51.04
2024-03-12T01:52:29.257Z,52.15
2024-03-12T01:53:29.313Z,53.97
2024-03-12T01:54:29.407Z,52.91
2024-03-12T01:55:29.466Z,52.53
2024-03-12T01:56:29.518Z,51.72
2024-03-12T01:57:29.580Z,53.41
2024-03-12T01:58:29.644Z,52.82
2024-03-12T01:59:29.711Z,52.03
2024-03-12T02:00:29.816Z,54.21
2024-03-12T02:01:29.991Z,50.92
2024-03-12T02:02:29.911Z,52.98
2024-03-12T02:03:30.025Z,52.19
2024-03-12T02:04:30.052Z,51.70
2024-03-12T02:05:30.144Z,51.36
2024-03-12T02:06:30.218Z,50.98
2024-03-12T02:07:30.265Z,52.47
2024-03-12T02:08:30.331Z,52.48
2024-03-12T02:09:30.407Z,52.44
2024-03-12T02:10:35.551Z,50.23
2024-03-12T02:11:30.532Z,50.50
2024-03-12T02:12:30.511Z,50.48
2024-03-12T02:13:30.473Z,51.26
2024-03-12T02:14:30.474Z,51.87
2024-03-12T02:15:30.501Z,53.11
2024-03-12T02:16:30.538Z,53.81
2024-03-12T02:17:30.558Z,53.45
2024-03-12T02:18:30.586Z,52.21
2024-03-12T02:19:30.656Z,53.75
2024-03-12T02:20:30.719Z,53.49
2024-03-12T02:21:30.816Z,52.59
2024-03-12T02:22:30.830Z,51.37
2024-03-12T02:23:30.920Z,52.60
2024-03-12T02:24:30.990Z,52.05
2024-03-12T02:25:31.043Z,51.95
2024-03-12T02:26:31.107Z,52.37
2024-03-12T02:27:31.212Z,49.87
2024-03-12T02:28:31.246Z,53.36
2024-03-12T02:29:31.308Z,54.19
2024-03-12T02:30:31.409Z,54.38
2024-03-12T02:31:31.496Z,52.01
2024-03-12T02:32:31.539Z,53.76
2024-03-12T02:33:31.636Z,53.14
2024-03-12T02:34:31.621Z,53.78
2024-03-12T02:35:31.735Z,53.57
2024-03-12T02:36:31.791Z,51.56
2024-03-12T02:37:31.831Z,50.78
2024-03-12T02:38:31.895Z,50.00
2024-03-12T02:39:32.023Z,52.43
2024-03-12T02:40:32.037Z,50.00
2024-03-12T02:41:32.109Z,54.07
2024-03-12T02:42:32.192Z,53.13
2024-03-12T02:43:32.252Z,52.80
2024-03-12T02:44:32.313Z,53.68
2024-03-12T02:45:32.409Z,52.36
2024-03-12T02:46:32.461Z,52.63
2024-03-12T02:47:32.545Z,50.90
2024-03-12T02:48:37.746Z,53.85
2024-03-12T02:49:32.621Z,53.93
2024-03-12T02:50:32.592Z,54.08
2024-03-12T02:51:32.667Z,53.48
2024-03-12T02:52:32.581Z,54.28
2024-03-12T02:53:33.535Z,51.90
2024-03-12T02:54:32.717Z,53.26
2024-03-12T02:55:32.717Z,52.87
2024-03-12T02:56:32.781Z,54.49
2024-03-12T02:57:32.895Z,51.73
2024-03-12T02:58:32.941Z,53.32
2024-03-12T02:59:33.006Z,53.22
2024-03-12T03:00:33.123Z,51.56
2024-03-12T03:01:33.260Z,53.31
2024-03-12T03:02:33.220Z,50.29
2024-03-12T03:03:33.291Z,52.85
2024-03-12T03:04:33.356Z,52.11
2024-03-12T03:05:33.433Z,51.98
2024-03-12T03:06:33.519Z,50.87
2024-03-12T03:07:33.610Z,52.81
2024-03-12T03:08:33.657Z,51.67
2024-03-12T03:09:33.721Z,51.02
2024-03-12T03:10:33.846Z,52.79
2024-03-12T03:11:33.885Z,51.33
2024-03-12T03:12:33.948Z,52.25
2024-03-12T03:13:33.945Z,50.13
2024-03-12T03:14:33.978Z,53.52
2024-03-12T03:15:34.159Z,52.25
2024-03-12T03:16:34.045Z,51.57
2024-03-12T03:17:34.145Z,53.26
2024-03-12T03:18:34.126Z,53.58
2024-03-12T03:19:34.162Z,50.00
2024-03-12T03:20:34.217Z,52.22
2024-03-12T03:21:34.276Z,51.45
2024-03-12T03:22:34.277Z,52.21
2024-03-12T03:23:55.354Z,50.28
2024-03-12T03:24:34.358Z,50.64
2024-03-12T03:25:34.330Z,52.01
2024-03-12T03:26:34.319Z,53.46
2024-03-12T03:27:34.351Z,54.91
2024-03-12T03:28:34.325Z,55.28
2024-03-12T03:29:34.338Z,56.17
2024-03-12T03:30:34.350Z,53.20
2024-03-12T03:31:34.338Z,54.51
2024-03-12T03:32:34.362Z,54.00
2024-03-12T03:33:34.377Z,52.60
2024-03-12T03:34:34.349Z,51.93
2024-03-12T03:35:34.340Z,52.50
2024-03-12T03:36:34.382Z,51.72
2024-03-12T03:37:34.367Z,52.23
2024-03-12T03:38:39.371Z,50.84
2024-03-12T03:39:34.422Z,50.97
2024-03-12T03:40:34.365Z,51.09
2024-03-12T03:41:34.360Z,51.26
2024-03-12T03:42:34.412Z,51.04
2024-03-12T03:43:34.372Z,53.10
2024-03-12T03:44:36.324Z,50.18
2024-03-12T03:45:34.541Z,50.00
2024-03-12T03:46:34.564Z,54.11
2024-03-12T03:47:34.647Z,52.45
2024-03-12T03:48:34.708Z,50.56
2024-03-12T03:49:34.747Z,50.10
2024-03-12T03:50:34.788Z,52.63
2024-03-12T03:51:34.926Z,50.90
2024-03-12T03:52:34.931Z,51.25
2024-03-12T03:53:34.970Z,51.63
2024-03-12T03:54:35.053Z,50.61
2024-03-12T03:55:35.115Z,52.68
2024-03-12T03:56:35.169Z,53.73
2024-03-12T03:57:35.334Z,50.00
2024-03-12T03:58:35.302Z,50.52
2024-03-12T03:59:35.379Z,51.57
2024-03-12T04:00:35.462Z,52.57
2024-03-12T04:01:35.601Z,53.73
2024-03-12T04:02:35.568Z,52.73
2024-03-12T04:03:35.660Z,52.69
2024-03-12T04:04:35.728Z,53.66
2024-03-12T04:05:35.776Z,51.42
2024-03-12T04:06:35.893Z,52.39
2024-03-12T04:07:35.907Z,53.36
2024-03-12T04:08:36.011Z,51.74
2024-03-12T04:09:36.132Z,52.84
2024-03-12T04:10:36.112Z,53.36
2024-03-12T04:11:36.239Z,51.93
2024-03-12T04:12:36.265Z,52.55
2024-03-12T04:13:36.312Z,54.28
2024-03-12T04:14:36.387Z,53.06
2024-03-12T04:15:36.475Z,53.98
2024-03-12T04:16:36.522Z,51.31
2024-03-12T04:17:36.586Z,53.24
2024-03-12T04:18:37.456Z,53.44
2024-03-12T04:19:36.692Z,50.20
2024-03-12T04:20:36.764Z,52.89
2024-03-12T04:21:36.898Z,53.73
2024-03-12T04:22:36.894Z,53.43
2024-03-12T04:23:36.961Z,50.43
2024-03-12T04:24:37.060Z,52.71
2024-03-12T04:25:37.100Z,51.41
2024-03-12T04:26:37.148Z,51.41
2024-03-12T04:27:37.324Z,51.86
2024-03-12T04:28:37.280Z,53.48
2024-03-12T04:29:37.366Z,53.55
2024-03-12T04:30:37.449Z,54.67
2024-03-12T04:31:37.486Z,52.49
2024-03-12T04:32:37.563Z,52.14
2024-03-12T04:33:37.612Z,51.68
2024-03-12T04:34:37.649Z,52.74
2024-03-12T04:35:37.720Z,52.83
2024-03-12T04:36:38.238Z,52.77
2024-03-12T04:37:37.848Z,50.20
2024-03-12T04:38:37.910Z,51.53
2024-03-12T04:39:45.180Z,50.00
2024-03-12T04:40:45.213Z,50.00
2024-03-12T04:41:45.156Z,50.00
2024-03-12T04:42:45.338Z,50.00
2024-03-12T04:43:45.162Z,50.00
2024-03-12T04:44:45.177Z,50.63
2024-03-12T04:45:45.174Z,52.30
2024-03-12T04:46:45.211Z,53.66
2024-03-12T04:47:45.293Z,52.82
2024-03-12T04:48:47.276Z,50.13
2024-03-12T04:49:45.366Z,50.83
2024-03-12T04:50:45.449Z,52.04
2024-03-12T04:51:45.500Z,53.57
2024-03-12T04:52:45.538Z,53.70
2024-03-12T04:53:55.642Z,52.99
2024-03-12T04:54:45.622Z,53.23
2024-03-12T04:55:45.600Z,53.55
2024-03-12T04:56:45.612Z,54.11
2024-03-12T04:57:45.687Z,53.87
2024-03-12T04:58:55.684Z,50.71
2024-03-12T04:59:45.609Z,53.29
2024-03-12T05:00:45.676Z,53.84
2024-03-12T05:01:45.696Z,53.46
2024-03-12T05:02:45.622Z,55.54
2024-03-12T05:03:45.615Z,53.04
2024-03-12T05:04:45.702Z,55.94
2024-03-12T05:05:45.615Z,50.79
2024-03-12T05:06:45.644Z,51.01
2024-03-12T05:07:45.658Z,51.01
2024-03-12T05:08:45.625Z,53.14
2024-03-12T05:09:45.689Z,54.26
2024-03-12T05:10:45.673Z,52.89
2024-03-12T05:11:45.617Z,50.88
2024-03-12T05:12:45.656Z,51.37
2024-03-12T05:13:45.622Z,52.63
2024-03-12T05:14:45.661Z,51.88
2024-03-12T05:15:45.672Z,51.69
2024-03-12T05:16:45.669Z,50.84
2024-03-12T05:17:45.640Z,52.57
2024-03-12T05:18:45.688Z,52.76
2024-03-12T05:19:45.632Z,50.75
2024-03-12T05:20:45.650Z,52.32
2024-03-12T05:21:45.649Z,52.87
2024-03-12T05:22:45.649Z,52.42
2024-03-12T05:23:45.635Z,52.10
2024-03-12T05:24:45.691Z,51.75
2024-03-12T05:25:45.651Z,52.97
2024-03-12T05:26:45.754Z,52.63
2024-03-12T05:27:45.801Z,51.70
2024-03-12T05:28:45.829Z,51.97
2024-03-12T05:29:45.873Z,51.71
2024-03-12T05:30:45.996Z,53.70
2024-03-12T05:31:46.000Z,51.78
2024-03-12T05:32:46.069Z,50.52
2024-03-12T05:33:46.206Z,51.52
2024-03-12T05:34:46.208Z,54.04
2024-03-12T05:35:46.259Z,52.50
2024-03-12T05:36:46.391Z,50.91
2024-03-12T05:37:46.379Z,52.39
2024-03-12T05:38:46.457Z,52.71
2024-03-12T05:39:46.525Z,54.07
2024-03-12T05:40:46.575Z,51.89
2024-03-12T05:41:46.629Z,52.48
2024-03-12T05:42:46.725Z,53.30
2024-03-12T05:43:49.007Z,53.31
2024-03-12T05:44:46.763Z,54.02
2024-03-12T05:45:51.400Z,52.47
2024-03-12T05:46:46.964Z,52.70
2024-03-12T05:47:46.800Z,53.18
2024-03-12T05:48:46.795Z,53.19
2024-03-12T05:49:46.756Z,53.14
2024-03-12T05:50:46.769Z,53.85
2024-03-12T05:51:46.846Z,52.82
2024-03-12T05:52:46.779Z,52.53
2024-03-12T05:53:46.763Z,52.47
2024-03-12T05:54:46.804Z,53.65
2024-03-12T05:55:46.769Z,51.11
2024-03-12T05:56:46.781Z,53.00
2024-03-12T05:57:46.829Z,53.20
2024-03-12T05:58:47.201Z,52.97
2024-03-12T05:59:46.788Z,53.50
2024-03-12T06:00:46.921Z,51.86
2024-03-12T06:01:46.963Z,53.09
2024-03-12T06:02:46.997Z,52.39
2024-03-12T06:03:47.352Z,50.92
2024-03-12T06:04:47.122Z,52.83
2024-03-12T06:05:47.176Z,51.23
2024-03-12T06:06:47.246Z,50.91
2024-03-12T06:07:47.290Z,52.20
2024-03-12T06:08:47.346Z,51.90
2024-03-12T06:09:47.420Z,51.92
2024-03-12T06:10:47.478Z,51.55
2024-03-12T06:11:47.582Z,50.75
2024-03-12T06:12:48.369Z,52.63
2024-03-12T06:13:47.646Z,52.71
2024-03-12T06:14:47.687Z,54.58
2024-03-12T06:15:47.749Z,53.05
2024-03-12T06:16:47.800Z,53.32
2024-03-12T06:17:47.919Z,52.87
2024-03-12T06:18:47.995Z,50.58
2024-03-12T06:19:47.944Z,51.99
2024-03-12T06:20:47.996Z,50.61
2024-03-12T06:21:48.121Z,51.11
2024-03-12T06:22:48.110Z,53.56
2024-03-12T06:23:48.152Z,51.46
2024-03-12T06:24:48.250Z,51.76
2024-03-12T06:25:48.237Z,53.31
2024-03-12T06:26:48.315Z,50.00
2024-03-12T06:27:48.381Z,51.93
2024-03-12T06:28:48.429Z,53.25
2024-03-12T06:29:48.508Z,52.27
2024-03-12T06:30:48.554Z,50.96
2024-03-12T06:31:48.612Z,50.87
2024-03-12T06:32:48.696Z,53.25
2024-03-12T06:33:48.786Z,50.00
2024-03-12T06:34:48.899Z,51.10
2024-03-12T06:35:48.960Z,51.46
2024-03-12T06:36:48.980Z,53.08
2024-03-12T06:37:49.016Z,51.40
2024-03-12T06:38:49.084Z,54.25
2024-03-12T06:39:49.270Z,52.91
2024-03-12T06:40:49.231Z,53.79
2024-03-12T06:41:49.275Z,54.38
2024-03-12T06:42:49.360Z,56.01
2024-03-12T06:43:49.413Z,53.95
2024-03-12T06:44:49.459Z,55.81
2024-03-12T06:45:49.540Z,60.15
2024-03-12T06:46:49.562Z,58.79
2024-03-12T06:47:49.625Z,61.70
2024-03-12T06:48:49.707Z,61.67
2024-03-12T06:49:49.732Z,64.93
2024-03-12T06:50:49.771Z,66.43
2024-03-12T06:51:49.857Z,67.93
2024-03-12T06:52:49.881Z,68.07
2024-03-12T06:53:49.953Z,66.14
2024-03-12T06:54:50.020Z,65.26
2024-03-12T06:55:50.080Z,65.45
2024-03-12T06:56:50.142Z,66.56
2024-03-12T06:57:50.256Z,63.80
2024-03-12T06:58:50.302Z,63.26
2024-03-12T06:59:50.378Z,64.68
2024-03-12T07:00:50.405Z,64.12
2024-03-12T07:01:50.414Z,63.07
2024-03-12T07:02:50.410Z,64.79
2024-03-12T07:03:53.181Z,64.53
2024-03-12T07:04:50.402Z,64.03
2024-03-12T07:05:50.460Z,64.24
2024-03-12T07:06:50.470Z,64.42
2024-03-12T07:07:50.398Z,63.27
2024-03-12T07:08:50.393Z,62.62
2024-03-12T07:09:50.610Z,61.99
2024-03-12T07:10:50.414Z,62.91
2024-03-12T07:11:50.408Z,62.88
2024-03-12T07:12:50.431Z,62.34
2024-03-12T07:13:50.560Z,61.50
2024-03-12T07:14:50.406Z,61.61
2024-03-12T07:15:50.449Z,62.10
2024-03-12T07:16:50.418Z,61.32
2024-03-12T07:17:50.534Z,62.30
2024-03-12T07:18:50.463Z,61.34
2024-03-12T07:19:50.419Z,61.68
2024-03-12T07:20:50.418Z,61.58
2024-03-12T07:21:50.472Z,58.33
2024-03-12T07:22:50.428Z,60.39
2024-03-12T07:23:50.429Z,60.30
2024-03-12T07:24:50.437Z,58.95
2024-03-12T07:25:50.436Z,58.88
2024-03-12T07:26:50.426Z,59.51
2024-03-12T07:27:50.489Z,56.28
2024-03-12T07:28:50.435Z,58.57
2024-03-12T07:29:50.444Z,59.10
2024-03-12T07:30:50.460Z,57.74
2024-03-12T07:31:50.448Z,57.01
2024-03-12T07:32:50.467Z,57.02
2024-03-12T07:33:50.481Z,58.09
2024-03-12T07:34:50.437Z,58.72
2024-03-12T07:35:50.461Z,55.34
2024-03-12T07:36:50.478Z,54.41
2024-03-12T07:37:50.451Z,56.69
2024-03-12T07:38:50.465Z,56.54
2024-03-12T07:39:50.521Z,55.53
2024-03-12T07:40:50.475Z,53.24
2024-03-12T07:41:50.551Z,52.39
2024-03-12T07:42:50.633Z,54.13
2024-03-12T07:43:50.682Z,54.12
2024-03-12T07:44:50.741Z,53.15
2024-03-12T07:45:50.921Z,51.91
2024-03-12T07:46:50.927Z,53.25
2024-03-12T07:47:51.004Z,53.07
2024-03-12T07:48:51.086Z,53.54
2024-03-12T07:49:51.094Z,54.16
2024-03-12T07:50:51.169Z,54.52
2024-03-12T07:51:51.282Z,58.22
2024-03-12T07:52:51.301Z,57.65
2024-03-12T07:53:51.401Z,62.06
2024-03-12T07:54:51.453Z,58.06
2024-03-12T07:55:51.507Z,58.00
2024-03-12T07:56:51.557Z,57.40
2024-03-12T07:57:51.719Z,55.21
2024-03-12T07:58:51.714Z,54.87
2024-03-12T07:59:51.782Z,53.63
2024-03-12T08:00:51.885Z,53.98
2024-03-12T08:01:51.987Z,54.37
2024-03-12T08:02:51.972Z,53.15
2024-03-12T08:03:52.067Z,52.44
2024-03-12T08:04:52.088Z,54.33
2024-03-12T08:05:52.170Z,50.66
2024-03-12T08:06:52.233Z,50.66
2024-03-12T08:07:52.245Z,52.76
2024-03-12T08:08:53.315Z,51.05
2024-03-12T08:09:52.380Z,51.28
2024-03-12T08:10:52.471Z,53.15
2024-03-12T08:11:52.436Z,53.76
2024-03-12T08:12:52.416Z,54.80
2024-03-12T08:13:52.388Z,55.43
2024-03-12T08:14:52.388Z,54.37
2024-03-12T08:15:52.436Z,54.68
2024-03-12T08:16:52.408Z,54.79
2024-03-12T08:17:56.934Z,56.75
2024-03-12T08:18:52.502Z,56.97
2024-03-12T08:19:52.426Z,58.16
2024-03-12T08:20:52.422Z,61.25
2024-03-12T08:21:52.504Z,66.30
2024-03-12T08:22:52.433Z,71.05
2024-03-12T08:23:52.441Z,73.43
2024-03-12T08:24:52.471Z,74.32
2024-03-12T08:25:56.644Z,76.22
2024-03-12T08:26:53.461Z,76.36
2024-03-12T08:27:52.508Z,77.05
2024-03-12T08:28:52.454Z,79.26
2024-03-12T08:29:52.453Z,82.83
2024-03-12T08:30:52.492Z,86.71
2024-03-12T08:31:59.408Z,89.18
2024-03-12T08:32:53.532Z,89.32
2024-03-12T08:33:52.523Z,90.05
2024-03-12T08:34:52.457Z,92.37
2024-03-12T08:35:54.006Z,96.55
2024-03-12T08:36:52.706Z,99.64
2024-03-12T08:37:52.711Z,104.52
2024-03-12T08:38:52.728Z,105.98
2024-03-12T08:39:52.943Z,103.86
2024-03-12T08:40:52.795Z,103.16
2024-03-12T08:41:52.851Z,102.03
2024-03-12T08:43:01.693Z,100.91
2024-03-12T08:43:53.921Z,101.01
2024-03-12T08:44:52.849Z,100.20
2024-03-12T08:45:52.882Z,96.71
2024-03-12T08:46:52.859Z,93.68
2024-03-12T08:47:52.964Z,93.04
2024-03-12T08:48:52.877Z,90.08
2024-03-12T08:49:52.898Z,87.36
2024-03-12T08:50:52.864Z,81.92
2024-03-12T08:51:52.909Z,74.75
2024-03-12T08:52:52.862Z,70.71
2024-03-12T08:53:52.881Z,66.44
2024-03-12T08:54:52.951Z,59.65
2024-03-12T08:55:52.942Z,54.97
2024-03-12T08:56:52.981Z,50.00
2024-03-12T08:57:53.039Z,50.07
2024-03-12T08:58:53.006Z,50.47
2024-03-12T08:59:53.002Z,50.23
2024-03-12T09:00:53.075Z,50.00
2024-03-12T09:01:53.052Z,50.00
2024-03-12T09:02:53.007Z,50.44
2024-03-12T09:03:53.099Z,50.08
2024-03-12T09:04:53.045Z,50.00
2024-03-12T09:05:53.068Z,50.58
2024-03-12T09:06:53.111Z,50.41
2024-03-12T09:07:53.197Z,51.36
2024-03-12T09:08:53.135Z,50.44
2024-03-12T09:09:53.277Z,50.38
2024-03-12T09:10:53.244Z,50.00
2024-03-12T09:12:00.462Z,50.00
2024-03-12T09:13:00.520Z,50.00
2024-03-12T09:14:00.474Z,50.00
2024-03-12T09:15:00.506Z,50.00
2024-03-12T09:16:01.078Z,50.00
2024-03-12T09:17:00.492Z,50.00
2024-03-12T09:18:00.547Z,52.20
2024-03-12T09:19:00.507Z,51.17
2024-03-12T09:20:00.503Z,50.18
2024-03-12T09:21:00.490Z,50.85
2024-03-12T09:22:00.619Z,50.07
2024-03-12T09:23:00.548Z,50.78
2024-03-12T09:24:02.338Z,50.00
2024-03-12T09:25:00.640Z,51.10
2024-03-12T09:26:00.761Z,50.00
2024-03-12T09:27:00.750Z,51.38
2024-03-12T09:28:00.796Z,50.23
2024-03-12T09:29:01.204Z,51.79
2024-03-12T09:30:00.884Z,50.00
2024-03-12T09:31:01.032Z,52.03
2024-03-12T09:32:00.995Z,50.53
2024-03-12T09:33:01.072Z,51.54
2024-03-12T09:34:01.195Z,51.46
2024-03-12T09:35:01.226Z,52.71
2024-03-12T09:36:01.239Z,50.00
2024-03-12T09:37:01.338Z,52.05
2024-03-12T09:38:01.366Z,51.60
2024-03-12T09:39:01.430Z,50.00
2024-03-12T09:40:01.672Z,50.00
2024-03-12T09:41:01.552Z,50.99
2024-03-12T09:42:01.617Z,50.45
2024-03-12T09:43:01.745Z,50.00
2024-03-12T09:44:04.273Z,53.39
2024-03-12T09:45:01.765Z,51.93
2024-03-12T09:46:01.784Z,53.45
2024-03-12T09:47:01.755Z,57.62
2024-03-12T09:48:01.756Z,57.45
2024-03-12T09:49:01.845Z,57.28
2024-03-12T09:50:03.583Z,60.67
2024-03-12T09:51:01.776Z,60.75
2024-03-12T09:52:01.806Z,61.37
2024-03-12T09:53:01.756Z,62.70
2024-03-12T09:54:01.752Z,64.22
2024-03-12T09:55:01.846Z,66.58
2024-03-12T09:56:03.570Z,68.55
2024-03-12T09:57:01.754Z,68.60
2024-03-12T09:58:01.782Z,69.06
2024-03-12T09:59:01.817Z,68.80
2024-03-12T10:00:01.792Z,65.72
2024-03-12T10:01:02.006Z,67.44
2024-03-12T10:02:03.571Z,70.70
2024-03-12T10:03:01.764Z,69.33
2024-03-12T10:04:01.775Z,67.34
2024-03-12T10:05:01.772Z,70.19
2024-03-12T10:06:01.772Z,72.05
2024-03-12T10:07:01.914Z,70.26
2024-03-12T10:08:03.305Z,71.34
2024-03-12T10:09:01.778Z,71.25
2024-03-12T10:10:01.916Z,71.62
2024-03-12T10:11:01.841Z,72.00
2024-03-12T10:12:01.778Z,71.28
2024-03-12T10:13:01.832Z,71.73
2024-03-12T10:14:03.455Z,71.33
2024-03-12T10:15:01.864Z,71.42
2024-03-12T10:16:02.017Z,71.60
2024-03-12T10:17:01.914Z,71.75
2024-03-12T10:18:01.918Z,71.96
2024-03-12T10:19:01.907Z,73.68
2024-03-12T10:20:03.361Z,73.08
2024-03-12T10:21:02.079Z,73.71
2024-03-12T10:22:02.196Z,73.60
2024-03-12T10:23:02.059Z,69.89
2024-03-12T10:24:02.055Z,68.91
2024-03-12T10:25:02.091Z,67.58
2024-03-12T10:26:03.737Z,64.17
2024-03-12T10:27:02.080Z,65.93
2024-03-12T10:28:07.687Z,63.92
2024-03-12T10:29:03.089Z,63.97
2024-03-12T10:30:02.088Z,61.22
2024-03-12T10:31:02.212Z,60.98
2024-03-12T10:32:03.813Z,57.78
2024-03-12T10:33:02.194Z,58.67
2024-03-12T10:34:02.184Z,52.13
2024-03-12T10:35:02.086Z,53.94
2024-03-12T10:36:02.095Z,50.72
2024-03-12T10:37:02.132Z,52.63
2024-03-12T10:38:04.322Z,53.06
2024-03-12T10:39:02.097Z,53.17
2024-03-12T10:40:02.202Z,53.29
2024-03-12T10:41:02.116Z,51.58
2024-03-12T10:42:02.103Z,51.39
2024-03-12T10:43:02.134Z,51.08
2024-03-12T10:44:04.840Z,51.60
2024-03-12T10:45:02.131Z,51.72
2024-03-12T10:46:02.153Z,52.22
2024-03-12T10:47:02.378Z,53.30
2024-03-12T10:48:02.129Z,55.43
2024-03-12T10:49:02.152Z,61.96
2024-03-12T10:50:02.133Z,60.35
2024-03-12T10:51:02.128Z,61.82
2024-03-12T10:52:02.160Z,60.72
2024-03-12T10:53:02.139Z,61.29
2024-03-12T10:54:02.138Z,62.63
2024-03-12T10:55:06.209Z,63.18
2024-03-12T10:56:07.095Z,63.31
2024-03-12T10:57:03.150Z,63.38
2024-03-12T10:58:02.172Z,64.60
2024-03-12T10:59:02.145Z,67.05
2024-03-12T11:00:02.204Z,72.86
2024-03-12T11:01:02.252Z,77.49
2024-03-12T11:02:05.187Z,77.58
2024-03-12T11:03:02.153Z,77.68
2024-03-12T11:04:02.190Z,78.47
2024-03-12T11:05:02.164Z,79.05
2024-03-12T11:06:02.152Z,81.21
2024-03-12T11:07:02.351Z,86.02
2024-03-12T11:08:04.791Z,89.45
2024-03-12T11:09:02.153Z,92.05
2024-03-12T11:10:02.265Z,90.45
2024-03-12T11:11:02.182Z,92.12
2024-03-12T11:12:02.180Z,92.09
2024-03-12T11:13:02.343Z,94.48
2024-03-12T11:14:04.985Z,94.50
2024-03-12T11:15:02.159Z,94.68
2024-03-12T11:16:02.180Z,95.40
2024-03-12T11:17:02.154Z,97.18
2024-03-12T11:18:02.216Z,99.71
2024-03-12T11:19:02.163Z,103.78
2024-03-12T11:20:03.364Z,102.96
2024-03-12T11:21:02.163Z,107.12
2024-03-12T11:22:02.167Z,106.36
2024-03-12T11:23:02.648Z,106.58
2024-03-12T11:24:02.153Z,106.66
2024-03-12T11:25:02.280Z,107.16
2024-03-12T11:26:02.153Z,107.27
2024-03-12T11:27:02.352Z,113.39
2024-03-12T11:28:02.235Z,108.52
2024-03-12T11:29:02.164Z,111.10
2024-03-12T11:30:02.187Z,110.51
2024-03-12T11:31:02.278Z,116.10
2024-03-12T11:32:02.158Z,112.58
2024-03-12T11:33:02.192Z,114.72
2024-03-12T11:34:02.211Z,114.00
2024-03-12T11:35:02.242Z,115.54
2024-03-12T11:36:02.310Z,115.24
2024-03-12T11:37:02.493Z,116.92
2024-03-12T11:38:02.441Z,117.60
2024-03-12T11:39:02.508Z,118.27
2024-03-12T11:40:02.656Z,117.19
2024-03-12T11:41:02.597Z,113.85
2024-03-12T11:42:02.735Z,115.57
2024-03-12T11:43:02.864Z,115.81
2024-03-12T11:44:02.747Z,115.67
2024-03-12T11:45:02.822Z,112.37
2024-03-12T11:46:02.920Z,111.22
2024-03-12T11:47:02.924Z,111.19
2024-03-12T11:48:02.993Z,113.30
2024-03-12T11:49:03.061Z,112.86
2024-03-12T11:50:04.865Z,113.65
2024-03-12T11:51:03.161Z,116.20
2024-03-12T11:52:03.216Z,115.10
2024-03-12T11:53:03.313Z,114.28
2024-03-12T11:54:03.262Z,117.81
2024-03-12T11:55:03.361Z,116.45
2024-03-12T11:56:05.609Z,118.71
2024-03-12T11:57:03.362Z,119.87
2024-03-12T11:58:03.369Z,120.42
2024-03-12T11:59:08.507Z,121.79
2024-03-12T12:00:04.369Z,121.89
2024-03-12T12:01:03.430Z,122.00
2024-03-12T12:02:04.520Z,120.88
2024-03-12T12:03:03.382Z,122.19
2024-03-12T12:04:03.413Z,121.42
2024-03-12T12:05:03.383Z,121.95
2024-03-12T12:06:04.124Z,122.19
2024-03-12T12:07:03.441Z,122.72
2024-03-12T12:08:03.381Z,120.54
2024-03-12T12:09:03.396Z,122.60
2024-03-12T12:10:03.561Z,122.49
2024-03-12T12:11:03.441Z,121.76
2024-03-12T12:12:03.384Z,122.13
2024-03-12T12:13:03.429Z,121.13
2024-03-12T12:14:05.370Z,119.18
2024-03-12T12:15:03.521Z,119.91
2024-03-12T12:16:03.752Z,121.20
2024-03-12T12:17:03.628Z,119.69
2024-03-12T12:18:03.689Z,119.85
2024-03-12T12:19:03.800Z,122.02
2024-03-12T12:20:03.739Z,121.49
2024-03-12T12:21:03.811Z,122.55
2024-03-12T12:22:03.911Z,123.22
2024-03-12T12:23:03.926Z,123.29
2024-03-12T12:24:04.828Z,122.30
2024-03-12T12:25:04.185Z,121.87
2024-03-12T12:26:04.038Z,123.29
2024-03-12T12:27:04.099Z,122.88
2024-03-12T12:28:04.160Z,122.96
2024-03-12T12:29:04.182Z,123.96
2024-03-12T12:30:04.765Z,123.57
2024-03-12T12:31:04.296Z,122.81
2024-03-12T12:32:04.272Z,122.27
2024-03-12T12:33:04.352Z,123.45
2024-03-12T12:34:04.397Z,123.87
2024-03-12T12:35:04.424Z,121.19
2024-03-12T12:36:04.465Z,120.84
2024-03-12T12:37:04.597Z,118.61
2024-03-12T12:38:04.571Z,120.89
2024-03-12T12:39:04.738Z,119.54
2024-03-12T12:40:04.713Z,120.18
2024-03-12T12:41:04.736Z,119.31
2024-03-12T12:42:04.781Z,115.75
2024-03-12T12:43:04.844Z,115.98
2024-03-12T12:44:04.865Z,116.69
2024-03-12T12:45:04.902Z,115.16
2024-03-12T12:46:05.078Z,116.84
2024-03-12T12:47:04.952Z,116.48
2024-03-12T12:48:05.021Z,118.86
2024-03-12T12:49:05.043Z,116.21
2024-03-12T12:50:05.036Z,114.80